sensor_id;sensor_type;location;lat;lon;timestamp;P1;durP1;ratioP1;P2;durP2;ratioP2
19566;SDS011;9930;49.240;8.548;2022-07-25T00:00:48;6.03;;;5.63;;
19566;SDS011;9930;49.240;8.548;2022-07-25T00:03:16;5.85;;;5.35;;
19566;SDS011;9930;49.240;8.548;2022-07-25T00:05:42;5.85;;;5.40;;
19566;SDS011;9930;49.240;8.548;2022-07-25T00:08:07;5.32;;;4.93;;
19566;SDS011;9930;49.240;8.548;2022-07-25T00:10:33;6.28;;;5.78;;
19566;SDS011;9930;49.240;8.548;2022-07-25T00:12:59;5.28;;;4.88;;
19566;SDS011;9930;49.240;8.548;2022-07-25T00:15:25;5.47;;;5.07;;
19566;SDS011;9930;49.240;8.548;2022-07-25T00:17:54;6.30;;;5.80;;
19566;SDS011;9930;49.240;8.548;2022-07-25T00:20:20;5.65;;;5.25;;
19566;SDS011;9930;49.240;8.548;2022-07-25T00:22:49;5.40;;;5.00;;
19566;SDS011;9930;49.240;8.548;2022-07-25T00:25:15;5.95;;;5.45;;
19566;SDS011;9930;49.240;8.548;2022-07-25T00:27:41;6.15;;;5.65;;
19566;SDS011;9930;49.240;8.548;2022-07-25T00:30:06;6.07;;;5.60;;
19566;SDS011;9930;49.240;8.548;2022-07-25T00:32:33;5.95;;;5.53;;
19566;SDS011;9930;49.240;8.548;2022-07-25T00:34:59;5.82;;;5.32;;
19566;SDS011;9930;49.240;8.548;2022-07-25T00:37:26;5.93;;;5.50;;
19566;SDS011;9930;49.240;8.548;2022-07-25T00:39:53;5.45;;;5.05;;
19566;SDS011;9930;49.240;8.548;2022-07-25T00:42:20;5.72;;;5.22;;
19566;SDS011;9930;49.240;8.548;2022-07-25T00:44:48;5.95;;;5.55;;
19566;SDS011;9930;49.240;8.548;2022-07-25T00:47:15;5.57;;;5.18;;
19566;SDS011;9930;49.240;8.548;2022-07-25T00:49:41;5.70;;;5.30;;
19566;SDS011;9930;49.240;8.548;2022-07-25T00:52:06;5.70;;;5.30;;
19566;SDS011;9930;49.240;8.548;2022-07-25T00:54:35;5.55;;;5.15;;
19566;SDS011;9930;49.240;8.548;2022-07-25T00:57:00;5.65;;;5.22;;
19566;SDS011;9930;49.240;8.548;2022-07-25T00:59:29;6.18;;;5.70;;
19566;SDS011;9930;49.240;8.548;2022-07-25T01:01:58;6.35;;;5.85;;
19566;SDS011;9930;49.240;8.548;2022-07-25T01:04:24;6.28;;;5.80;;
19566;SDS011;9930;49.240;8.548;2022-07-25T01:06:53;6.00;;;5.60;;
19566;SDS011;9930;49.240;8.548;2022-07-25T01:09:22;6.13;;;5.63;;
19566;SDS011;9930;49.240;8.548;2022-07-25T01:11:49;6.22;;;5.72;;
19566;SDS011;9930;49.240;8.548;2022-07-25T01:14:15;6.40;;;5.90;;
19566;SDS011;9930;49.240;8.548;2022-07-25T01:16:40;5.95;;;5.50;;
19566;SDS011;9930;49.240;8.548;2022-07-25T01:19:06;6.63;;;6.13;;
19566;SDS011;9930;49.240;8.548;2022-07-25T01:21:36;6.30;;;5.80;;
19566;SDS011;9930;49.240;8.548;2022-07-25T01:24:08;6.35;;;5.88;;
19566;SDS011;9930;49.240;8.548;2022-07-25T01:26:34;6.28;;;5.78;;
19566;SDS011;9930;49.240;8.548;2022-07-25T01:29:03;6.35;;;5.95;;
19566;SDS011;9930;49.240;8.548;2022-07-25T01:31:29;6.10;;;5.70;;
19566;SDS011;9930;49.240;8.548;2022-07-25T01:33:55;6.45;;;6.00;;
19566;SDS011;9930;49.240;8.548;2022-07-25T01:36:21;6.43;;;5.82;;
19566;SDS011;9930;49.240;8.548;2022-07-25T01:38:51;6.50;;;6.00;;
19566;SDS011;9930;49.240;8.548;2022-07-25T01:41:17;5.68;;;5.28;;
19566;SDS011;9930;49.240;8.548;2022-07-25T01:43:42;6.43;;;5.88;;
19566;SDS011;9930;49.240;8.548;2022-07-25T01:46:10;6.05;;;5.65;;
19566;SDS011;9930;49.240;8.548;2022-07-25T01:48:36;6.88;;;6.38;;
19566;SDS011;9930;49.240;8.548;2022-07-25T01:51:02;6.57;;;6.07;;
19566;SDS011;9930;49.240;8.548;2022-07-25T01:53:28;6.15;;;5.70;;
19566;SDS011;9930;49.240;8.548;2022-07-25T01:55:55;5.90;;;5.50;;
19566;SDS011;9930;49.240;8.548;2022-07-25T01:58:24;6.80;;;6.30;;
19566;SDS011;9930;49.240;8.548;2022-07-25T02:00:53;6.65;;;6.15;;
19566;SDS011;9930;49.240;8.548;2022-07-25T02:03:24;6.47;;;5.97;;
19566;SDS011;9930;49.240;8.548;2022-07-25T02:05:54;6.57;;;6.07;;
19566;SDS011;9930;49.240;8.548;2022-07-25T02:08:29;6.63;;;6.13;;
19566;SDS011;9930;49.240;8.548;2022-07-25T02:10:58;6.53;;;6.03;;
19566;SDS011;9930;49.240;8.548;2022-07-25T02:13:25;6.47;;;5.97;;
19566;SDS011;9930;49.240;8.548;2022-07-25T02:15:52;6.65;;;6.15;;
19566;SDS011;9930;49.240;8.548;2022-07-25T02:18:17;6.45;;;5.95;;
19566;SDS011;9930;49.240;8.548;2022-07-25T02:20:43;6.85;;;6.35;;
19566;SDS011;9930;49.240;8.548;2022-07-25T02:23:09;6.22;;;5.72;;
19566;SDS011;9930;49.240;8.548;2022-07-25T02:25:35;6.47;;;5.97;;
19566;SDS011;9930;49.240;8.548;2022-07-25T02:28:01;6.13;;;5.72;;
19566;SDS011;9930;49.240;8.548;2022-07-25T02:30:28;6.25;;;5.75;;
19566;SDS011;9930;49.240;8.548;2022-07-25T02:32:54;6.22;;;5.75;;
19566;SDS011;9930;49.240;8.548;2022-07-25T02:35:22;6.70;;;6.20;;
19566;SDS011;9930;49.240;8.548;2022-07-25T02:37:48;6.03;;;5.53;;
19566;SDS011;9930;49.240;8.548;2022-07-25T02:40:16;7.00;;;6.30;;
19566;SDS011;9930;49.240;8.548;2022-07-25T02:42:42;6.30;;;5.85;;
19566;SDS011;9930;49.240;8.548;2022-07-25T02:45:08;6.38;;;5.93;;
19566;SDS011;9930;49.240;8.548;2022-07-25T02:47:34;6.78;;;6.25;;
19566;SDS011;9930;49.240;8.548;2022-07-25T02:50:00;6.60;;;6.10;;
19566;SDS011;9930;49.240;8.548;2022-07-25T02:52:29;6.63;;;6.13;;
19566;SDS011;9930;49.240;8.548;2022-07-25T02:54:57;6.50;;;6.00;;
19566;SDS011;9930;49.240;8.548;2022-07-25T02:57:25;6.57;;;6.13;;
19566;SDS011;9930;49.240;8.548;2022-07-25T02:59:56;7.28;;;6.68;;
19566;SDS011;9930;49.240;8.548;2022-07-25T03:02:26;6.97;;;6.47;;
19566;SDS011;9930;49.240;8.548;2022-07-25T03:04:53;6.70;;;6.13;;
19566;SDS011;9930;49.240;8.548;2022-07-25T03:07:19;6.85;;;6.25;;
19566;SDS011;9930;49.240;8.548;2022-07-25T03:09:44;6.90;;;6.40;;
19566;SDS011;9930;49.240;8.548;2022-07-25T03:12:10;6.63;;;6.13;;
19566;SDS011;9930;49.240;8.548;2022-07-25T03:14:38;6.70;;;6.10;;
19566;SDS011;9930;49.240;8.548;2022-07-25T03:17:06;7.15;;;6.55;;
19566;SDS011;9930;49.240;8.548;2022-07-25T03:19:31;6.72;;;6.22;;
19566;SDS011;9930;49.240;8.548;2022-07-25T03:22:00;7.03;;;6.53;;
19566;SDS011;9930;49.240;8.548;2022-07-25T03:24:31;6.32;;;5.85;;
19566;SDS011;9930;49.240;8.548;2022-07-25T03:26:57;6.65;;;6.15;;
19566;SDS011;9930;49.240;8.548;2022-07-25T03:29:26;6.72;;;6.22;;
19566;SDS011;9930;49.240;8.548;2022-07-25T03:31:52;6.90;;;6.40;;
19566;SDS011;9930;49.240;8.548;2022-07-25T03:34:20;7.05;;;6.53;;
19566;SDS011;9930;49.240;8.548;2022-07-25T03:36:45;6.70;;;6.20;;
19566;SDS011;9930;49.240;8.548;2022-07-25T03:39:14;7.07;;;6.53;;
19566;SDS011;9930;49.240;8.548;2022-07-25T03:41:40;6.63;;;6.13;;
19566;SDS011;9930;49.240;8.548;2022-07-25T03:44:08;7.20;;;6.60;;
19566;SDS011;9930;49.240;8.548;2022-07-25T03:46:34;6.43;;;5.93;;
19566;SDS011;9930;49.240;8.548;2022-07-25T03:48:59;7.18;;;6.57;;
19566;SDS011;9930;49.240;8.548;2022-07-25T03:51:25;7.10;;;6.50;;
19566;SDS011;9930;49.240;8.548;2022-07-25T03:53:58;6.53;;;6.03;;
19566;SDS011;9930;49.240;8.548;2022-07-25T03:56:28;6.78;;;6.28;;
19566;SDS011;9930;49.240;8.548;2022-07-25T03:58:55;6.72;;;6.18;;
19566;SDS011;9930;49.240;8.548;2022-07-25T04:01:24;7.15;;;6.55;;
19566;SDS011;9930;49.240;8.548;2022-07-25T04:03:51;6.72;;;6.22;;
19566;SDS011;9930;49.240;8.548;2022-07-25T04:06:16;6.70;;;6.20;;
19566;SDS011;9930;49.240;8.548;2022-07-25T04:08:45;7.05;;;6.45;;
19566;SDS011;9930;49.240;8.548;2022-07-25T04:11:15;7.60;;;6.93;;
19566;SDS011;9930;49.240;8.548;2022-07-25T04:13:44;7.00;;;6.50;;
19566;SDS011;9930;49.240;8.548;2022-07-25T04:16:12;7.20;;;6.60;;
19566;SDS011;9930;49.240;8.548;2022-07-25T04:18:41;7.10;;;6.50;;
19566;SDS011;9930;49.240;8.548;2022-07-25T04:21:07;7.20;;;6.65;;
19566;SDS011;9930;49.240;8.548;2022-07-25T04:23:34;6.93;;;6.43;;
19566;SDS011;9930;49.240;8.548;2022-07-25T04:26:02;7.13;;;6.60;;
19566;SDS011;9930;49.240;8.548;2022-07-25T04:28:29;6.95;;;6.45;;
19566;SDS011;9930;49.240;8.548;2022-07-25T04:30:58;6.65;;;6.15;;
19566;SDS011;9930;49.240;8.548;2022-07-25T04:33:26;6.95;;;6.38;;
19566;SDS011;9930;49.240;8.548;2022-07-25T04:35:58;7.68;;;6.97;;
19566;SDS011;9930;49.240;8.548;2022-07-25T04:38:25;7.80;;;7.20;;
19566;SDS011;9930;49.240;8.548;2022-07-25T04:40:56;8.27;;;6.93;;
19566;SDS011;9930;49.240;8.548;2022-07-25T04:43:22;7.03;;;6.53;;
19566;SDS011;9930;49.240;8.548;2022-07-25T04:45:48;7.45;;;6.85;;
19566;SDS011;9930;49.240;8.548;2022-07-25T04:48:15;7.50;;;6.82;;
19566;SDS011;9930;49.240;8.548;2022-07-25T04:50:41;7.72;;;6.88;;
19566;SDS011;9930;49.240;8.548;2022-07-25T04:53:08;7.47;;;6.80;;
19566;SDS011;9930;49.240;8.548;2022-07-25T04:55:33;7.47;;;6.88;;
19566;SDS011;9930;49.240;8.548;2022-07-25T04:58:00;7.25;;;6.65;;
19566;SDS011;9930;49.240;8.548;2022-07-25T05:00:26;7.60;;;6.90;;
19566;SDS011;9930;49.240;8.548;2022-07-25T05:02:52;6.93;;;6.32;;
19566;SDS011;9930;49.240;8.548;2022-07-25T05:05:22;6.90;;;6.22;;
19566;SDS011;9930;49.240;8.548;2022-07-25T05:07:54;7.03;;;6.53;;
19566;SDS011;9930;49.240;8.548;2022-07-25T05:10:22;7.30;;;6.72;;
19566;SDS011;9930;49.240;8.548;2022-07-25T05:12:54;6.93;;;6.43;;
19566;SDS011;9930;49.240;8.548;2022-07-25T05:15:21;7.43;;;6.82;;
19566;SDS011;9930;49.240;8.548;2022-07-25T05:17:50;7.82;;;7.15;;
19566;SDS011;9930;49.240;8.548;2022-07-25T05:20:16;6.85;;;6.35;;
19566;SDS011;9930;49.240;8.548;2022-07-25T05:22:46;7.28;;;6.68;;
19566;SDS011;9930;49.240;8.548;2022-07-25T05:25:12;7.63;;;7.13;;
19566;SDS011;9930;49.240;8.548;2022-07-25T05:27:38;7.20;;;6.70;;
19566;SDS011;9930;49.240;8.548;2022-07-25T05:30:05;6.78;;;6.25;;
19566;SDS011;9930;49.240;8.548;2022-07-25T05:32:33;7.50;;;6.90;;
19566;SDS011;9930;49.240;8.548;2022-07-25T05:34:59;7.72;;;7.03;;
19566;SDS011;9930;49.240;8.548;2022-07-25T05:37:26;6.88;;;6.35;;
19566;SDS011;9930;49.240;8.548;2022-07-25T05:39:54;8.25;;;7.45;;
19566;SDS011;9930;49.240;8.548;2022-07-25T05:42:21;7.22;;;6.63;;
19566;SDS011;9930;49.240;8.548;2022-07-25T05:44:47;7.10;;;6.57;;
19566;SDS011;9930;49.240;8.548;2022-07-25T05:47:15;7.82;;;7.22;;
19566;SDS011;9930;49.240;8.548;2022-07-25T05:49:41;6.80;;;6.25;;
19566;SDS011;9930;49.240;8.548;2022-07-25T05:52:07;6.97;;;6.38;;
19566;SDS011;9930;49.240;8.548;2022-07-25T05:54:33;7.13;;;6.63;;
19566;SDS011;9930;49.240;8.548;2022-07-25T05:56:59;6.60;;;6.10;;
19566;SDS011;9930;49.240;8.548;2022-07-25T05:59:26;6.53;;;5.97;;
19566;SDS011;9930;49.240;8.548;2022-07-25T06:01:53;6.93;;;6.32;;
19566;SDS011;9930;49.240;8.548;2022-07-25T06:04:20;6.97;;;6.38;;
19566;SDS011;9930;49.240;8.548;2022-07-25T06:06:48;6.50;;;5.90;;
19566;SDS011;9930;49.240;8.548;2022-07-25T06:09:20;6.72;;;6.22;;
19566;SDS011;9930;49.240;8.548;2022-07-25T06:11:50;6.70;;;6.20;;
19566;SDS011;9930;49.240;8.548;2022-07-25T06:14:16;6.75;;;6.30;;
19566;SDS011;9930;49.240;8.548;2022-07-25T06:16:45;6.88;;;6.38;;
19566;SDS011;9930;49.240;8.548;2022-07-25T06:19:11;7.10;;;6.50;;
19566;SDS011;9930;49.240;8.548;2022-07-25T06:21:36;6.80;;;6.30;;
19566;SDS011;9930;49.240;8.548;2022-07-25T06:24:03;7.32;;;6.82;;
19566;SDS011;9930;49.240;8.548;2022-07-25T06:26:29;6.80;;;6.30;;
19566;SDS011;9930;49.240;8.548;2022-07-25T06:28:55;6.82;;;6.32;;
19566;SDS011;9930;49.240;8.548;2022-07-25T06:31:21;6.75;;;6.25;;
19566;SDS011;9930;49.240;8.548;2022-07-25T06:33:49;6.07;;;5.57;;
19566;SDS011;9930;49.240;8.548;2022-07-25T06:36:17;6.72;;;6.22;;
19566;SDS011;9930;49.240;8.548;2022-07-25T06:38:43;6.72;;;6.13;;
19566;SDS011;9930;49.240;8.548;2022-07-25T06:41:12;6.47;;;6.00;;
19566;SDS011;9930;49.240;8.548;2022-07-25T06:43:41;6.90;;;6.40;;
19566;SDS011;9930;49.240;8.548;2022-07-25T06:46:07;6.20;;;5.80;;
19566;SDS011;9930;49.240;8.548;2022-07-25T06:48:33;6.93;;;6.40;;
19566;SDS011;9930;49.240;8.548;2022-07-25T06:50:58;6.70;;;6.20;;
19566;SDS011;9930;49.240;8.548;2022-07-25T06:53:25;6.80;;;6.30;;
19566;SDS011;9930;49.240;8.548;2022-07-25T06:55:51;6.25;;;5.75;;
19566;SDS011;9930;49.240;8.548;2022-07-25T06:58:17;6.80;;;6.30;;
19566;SDS011;9930;49.240;8.548;2022-07-25T07:00:43;6.63;;;6.13;;
19566;SDS011;9930;49.240;8.548;2022-07-25T07:03:08;6.75;;;6.28;;
19566;SDS011;9930;49.240;8.548;2022-07-25T07:05:38;6.65;;;6.15;;
19566;SDS011;9930;49.240;8.548;2022-07-25T07:08:05;7.05;;;6.55;;
19566;SDS011;9930;49.240;8.548;2022-07-25T07:10:31;6.60;;;6.20;;
19566;SDS011;9930;49.240;8.548;2022-07-25T07:13:03;7.03;;;6.32;;
19566;SDS011;9930;49.240;8.548;2022-07-25T07:15:38;6.10;;;5.68;;
19566;SDS011;9930;49.240;8.548;2022-07-25T07:18:08;7.15;;;6.47;;
19566;SDS011;9930;49.240;8.548;2022-07-25T07:20:34;6.32;;;5.82;;
19566;SDS011;9930;49.240;8.548;2022-07-25T07:23:00;6.60;;;6.10;;
19566;SDS011;9930;49.240;8.548;2022-07-25T07:25:27;6.00;;;5.57;;
19566;SDS011;9930;49.240;8.548;2022-07-25T07:27:54;6.53;;;6.03;;
19566;SDS011;9930;49.240;8.548;2022-07-25T07:30:24;6.63;;;6.10;;
19566;SDS011;9930;49.240;8.548;2022-07-25T07:32:53;6.40;;;5.90;;
19566;SDS011;9930;49.240;8.548;2022-07-25T07:35:21;6.10;;;5.60;;
19566;SDS011;9930;49.240;8.548;2022-07-25T07:37:50;6.38;;;5.90;;
19566;SDS011;9930;49.240;8.548;2022-07-25T07:40:16;6.53;;;6.03;;
19566;SDS011;9930;49.240;8.548;2022-07-25T07:42:46;6.13;;;5.72;;
19566;SDS011;9930;49.240;8.548;2022-07-25T07:45:20;6.05;;;5.55;;
19566;SDS011;9930;49.240;8.548;2022-07-25T07:47:53;6.43;;;5.93;;
19566;SDS011;9930;49.240;8.548;2022-07-25T07:50:25;6.35;;;5.95;;
19566;SDS011;9930;49.240;8.548;2022-07-25T07:52:54;6.50;;;6.03;;
19566;SDS011;9930;49.240;8.548;2022-07-25T07:55:25;6.35;;;5.85;;
19566;SDS011;9930;49.240;8.548;2022-07-25T07:58:17;6.00;;;5.50;;
19566;SDS011;9930;49.240;8.548;2022-07-25T08:00:44;6.13;;;5.72;;
19566;SDS011;9930;49.240;8.548;2022-07-25T08:03:12;6.40;;;5.90;;
19566;SDS011;9930;49.240;8.548;2022-07-25T08:05:49;5.93;;;5.53;;
19566;SDS011;9930;49.240;8.548;2022-07-25T08:08:18;6.35;;;5.93;;
19566;SDS011;9930;49.240;8.548;2022-07-25T08:10:45;7.47;;;6.97;;
19566;SDS011;9930;49.240;8.548;2022-07-25T08:13:20;6.78;;;6.28;;
19566;SDS011;9930;49.240;8.548;2022-07-25T08:15:53;6.53;;;6.03;;
19566;SDS011;9930;49.240;8.548;2022-07-25T08:18:25;6.97;;;6.47;;
19566;SDS011;9930;49.240;8.548;2022-07-25T08:20:59;6.13;;;5.72;;
19566;SDS011;9930;49.240;8.548;2022-07-25T08:23:30;6.25;;;5.85;;
19566;SDS011;9930;49.240;8.548;2022-07-25T08:26:02;6.47;;;6.00;;
19566;SDS011;9930;49.240;8.548;2022-07-25T08:28:31;7.05;;;6.30;;
19566;SDS011;9930;49.240;8.548;2022-07-25T08:31:00;6.60;;;6.10;;
19566;SDS011;9930;49.240;8.548;2022-07-25T08:33:27;6.35;;;5.93;;
19566;SDS011;9930;49.240;8.548;2022-07-25T08:35:54;5.68;;;5.28;;
19566;SDS011;9930;49.240;8.548;2022-07-25T08:38:25;6.30;;;5.80;;
19566;SDS011;9930;49.240;8.548;2022-07-25T08:40:53;5.88;;;5.47;;
19566;SDS011;9930;49.240;8.548;2022-07-25T08:43:23;6.03;;;5.53;;
19566;SDS011;9930;49.240;8.548;2022-07-25T08:45:57;5.85;;;5.45;;
19566;SDS011;9930;49.240;8.548;2022-07-25T08:48:26;6.15;;;5.75;;
19566;SDS011;9930;49.240;8.548;2022-07-25T08:50:55;6.82;;;6.30;;
19566;SDS011;9930;49.240;8.548;2022-07-25T08:53:24;6.40;;;5.93;;
19566;SDS011;9930;49.240;8.548;2022-07-25T08:55:53;5.82;;;5.38;;
19566;SDS011;9930;49.240;8.548;2022-07-25T08:58:19;6.25;;;5.85;;
19566;SDS011;9930;49.240;8.548;2022-07-25T09:00:45;6.70;;;6.20;;
19566;SDS011;9930;49.240;8.548;2022-07-25T09:03:11;6.50;;;6.03;;
19566;SDS011;9930;49.240;8.548;2022-07-25T09:05:37;6.20;;;5.80;;
19566;SDS011;9930;49.240;8.548;2022-07-25T09:10:37;6.50;;;6.00;;
19566;SDS011;9930;49.240;8.548;2022-07-25T09:13:07;6.47;;;6.07;;
19566;SDS011;9930;49.240;8.548;2022-07-25T09:15:40;6.43;;;6.00;;
19566;SDS011;9930;49.240;8.548;2022-07-25T09:18:17;6.00;;;5.50;;
19566;SDS011;9930;49.240;8.548;2022-07-25T09:20:52;6.00;;;5.60;;
19566;SDS011;9930;49.240;8.548;2022-07-25T09:26:08;6.45;;;5.95;;
19566;SDS011;9930;49.240;8.548;2022-07-25T09:28:48;6.30;;;5.90;;
19566;SDS011;9930;49.240;8.548;2022-07-25T09:31:18;6.25;;;5.85;;
19566;SDS011;9930;49.240;8.548;2022-07-25T09:36:25;6.18;;;5.68;;
19566;SDS011;9930;49.240;8.548;2022-07-25T09:38:52;6.30;;;5.90;;
19566;SDS011;9930;49.240;8.548;2022-07-25T09:41:38;6.80;;;6.25;;
19566;SDS011;9930;49.240;8.548;2022-07-25T09:44:17;6.50;;;6.00;;
19566;SDS011;9930;49.240;8.548;2022-07-25T09:46:46;6.55;;;6.05;;
19566;SDS011;9930;49.240;8.548;2022-07-25T09:49:15;6.38;;;5.97;;
19566;SDS011;9930;49.240;8.548;2022-07-25T09:51:41;6.57;;;6.13;;
19566;SDS011;9930;49.240;8.548;2022-07-25T09:54:07;6.93;;;6.25;;
19566;SDS011;9930;49.240;8.548;2022-07-25T09:56:33;6.20;;;5.80;;
19566;SDS011;9930;49.240;8.548;2022-07-25T09:58:59;6.88;;;6.38;;
19566;SDS011;9930;49.240;8.548;2022-07-25T10:01:32;6.93;;;6.45;;
19566;SDS011;9930;49.240;8.548;2022-07-25T10:07:02;6.43;;;6.03;;
19566;SDS011;9930;49.240;8.548;2022-07-25T10:09:39;6.90;;;6.40;;
19566;SDS011;9930;49.240;8.548;2022-07-25T10:12:17;6.43;;;5.93;;
19566;SDS011;9930;49.240;8.548;2022-07-25T10:17:36;5.82;;;5.43;;
19566;SDS011;9930;49.240;8.548;2022-07-25T10:20:08;6.05;;;5.65;;
19566;SDS011;9930;49.240;8.548;2022-07-25T10:22:38;5.95;;;5.55;;
19566;SDS011;9930;49.240;8.548;2022-07-25T10:25:06;6.00;;;5.60;;
19566;SDS011;9930;49.240;8.548;2022-07-25T10:27:46;5.88;;;5.47;;
19566;SDS011;9930;49.240;8.548;2022-07-25T10:30:20;5.68;;;5.20;;
19566;SDS011;9930;49.240;8.548;2022-07-25T10:32:59;5.38;;;5.07;;
19566;SDS011;9930;49.240;8.548;2022-07-25T10:35:35;6.57;;;6.07;;
19566;SDS011;9930;49.240;8.548;2022-07-25T10:38:04;6.30;;;5.70;;
19566;SDS011;9930;49.240;8.548;2022-07-25T10:43:11;5.97;;;5.53;;
19566;SDS011;9930;49.240;8.548;2022-07-25T10:45:52;6.07;;;5.68;;
19566;SDS011;9930;49.240;8.548;2022-07-25T10:50:56;6.38;;;5.82;;
19566;SDS011;9930;49.240;8.548;2022-07-25T10:56:01;5.80;;;5.40;;
19566;SDS011;9930;49.240;8.548;2022-07-25T10:58:44;5.65;;;5.25;;
19566;SDS011;9930;49.240;8.548;2022-07-25T11:01:30;5.82;;;5.32;;
19566;SDS011;9930;49.240;8.548;2022-07-25T11:04:02;6.22;;;5.72;;
19566;SDS011;9930;49.240;8.548;2022-07-25T11:06:39;5.95;;;5.55;;
19566;SDS011;9930;49.240;8.548;2022-07-25T11:11:47;6.10;;;5.60;;
19566;SDS011;9930;49.240;8.548;2022-07-25T11:16:55;5.75;;;5.35;;
19566;SDS011;9930;49.240;8.548;2022-07-25T11:19:54;5.55;;;5.15;;
19566;SDS011;9930;49.240;8.548;2022-07-25T11:22:33;5.32;;;4.95;;
19566;SDS011;9930;49.240;8.548;2022-07-25T11:25:00;5.88;;;5.38;;
19566;SDS011;9930;49.240;8.548;2022-07-25T11:27:36;5.47;;;5.03;;
19566;SDS011;9930;49.240;8.548;2022-07-25T11:30:12;5.30;;;5.00;;
19566;SDS011;9930;49.240;8.548;2022-07-25T11:35:25;5.53;;;5.13;;
19566;SDS011;9930;49.240;8.548;2022-07-25T11:37:58;5.32;;;4.95;;
19566;SDS011;9930;49.240;8.548;2022-07-25T11:40:27;5.47;;;4.97;;
19566;SDS011;9930;49.240;8.548;2022-07-25T11:42:55;5.38;;;5.05;;
19566;SDS011;9930;49.240;8.548;2022-07-25T11:45:26;5.20;;;4.85;;
19566;SDS011;9930;49.240;8.548;2022-07-25T11:50:30;5.50;;;5.10;;
19566;SDS011;9930;49.240;8.548;2022-07-25T11:52:59;5.82;;;5.32;;
19566;SDS011;9930;49.240;8.548;2022-07-25T11:55:30;5.53;;;5.13;;
19566;SDS011;9930;49.240;8.548;2022-07-25T11:58:02;6.07;;;5.57;;
19566;SDS011;9930;49.240;8.548;2022-07-25T12:00:32;5.90;;;5.50;;
19566;SDS011;9930;49.240;8.548;2022-07-25T12:03:08;6.20;;;5.70;;
19566;SDS011;9930;49.240;8.548;2022-07-25T12:05:37;5.50;;;5.20;;
19566;SDS011;9930;49.240;8.548;2022-07-25T12:08:11;6.05;;;5.65;;
19566;SDS011;9930;49.240;8.548;2022-07-25T12:10:40;5.90;;;5.50;;
19566;SDS011;9930;49.240;8.548;2022-07-25T12:16:10;5.78;;;5.30;;
19566;SDS011;9930;49.240;8.548;2022-07-25T12:18:36;5.90;;;5.43;;
19566;SDS011;9930;49.240;8.548;2022-07-25T12:21:05;6.28;;;5.88;;
19566;SDS011;9930;49.240;8.548;2022-07-25T12:23:31;5.65;;;5.25;;
19566;SDS011;9930;49.240;8.548;2022-07-25T12:25:58;5.95;;;5.55;;
19566;SDS011;9930;49.240;8.548;2022-07-25T12:28:24;5.53;;;5.13;;
19566;SDS011;9930;49.240;8.548;2022-07-25T12:30:54;5.60;;;5.20;;
19566;SDS011;9930;49.240;8.548;2022-07-25T12:33:26;5.80;;;5.40;;
19566;SDS011;9930;49.240;8.548;2022-07-25T12:35:52;5.40;;;5.10;;
19566;SDS011;9930;49.240;8.548;2022-07-25T12:38:20;5.20;;;4.90;;
19566;SDS011;9930;49.240;8.548;2022-07-25T12:40:49;5.38;;;4.97;;
19566;SDS011;9930;49.240;8.548;2022-07-25T12:43:17;5.20;;;4.90;;
19566;SDS011;9930;49.240;8.548;2022-07-25T12:45:42;5.22;;;4.82;;
19566;SDS011;9930;49.240;8.548;2022-07-25T12:48:11;5.30;;;4.97;;
19566;SDS011;9930;49.240;8.548;2022-07-25T12:50:41;5.32;;;5.00;;
19566;SDS011;9930;49.240;8.548;2022-07-25T12:53:08;5.07;;;4.68;;
19566;SDS011;9930;49.240;8.548;2022-07-25T12:55:34;5.10;;;4.70;;
19566;SDS011;9930;49.240;8.548;2022-07-25T12:58:06;5.57;;;5.10;;
19566;SDS011;9930;49.240;8.548;2022-07-25T13:00:39;5.35;;;4.95;;
19566;SDS011;9930;49.240;8.548;2022-07-25T13:03:05;5.35;;;4.95;;
19566;SDS011;9930;49.240;8.548;2022-07-25T13:05:30;5.18;;;4.88;;
19566;SDS011;9930;49.240;8.548;2022-07-25T13:08:02;4.88;;;4.50;;
19566;SDS011;9930;49.240;8.548;2022-07-25T13:10:30;5.15;;;4.75;;
19566;SDS011;9930;49.240;8.548;2022-07-25T13:12:59;5.05;;;4.70;;
19566;SDS011;9930;49.240;8.548;2022-07-25T13:15:24;5.35;;;5.00;;
19566;SDS011;9930;49.240;8.548;2022-07-25T13:17:54;5.13;;;4.82;;
19566;SDS011;9930;49.240;8.548;2022-07-25T13:20:31;5.13;;;4.82;;
19566;SDS011;9930;49.240;8.548;2022-07-25T13:23:02;5.00;;;4.70;;
19566;SDS011;9930;49.240;8.548;2022-07-25T13:25:28;5.10;;;4.70;;
19566;SDS011;9930;49.240;8.548;2022-07-25T13:27:58;5.38;;;4.97;;
19566;SDS011;9930;49.240;8.548;2022-07-25T13:30:26;4.68;;;4.38;;
19566;SDS011;9930;49.240;8.548;2022-07-25T13:32:54;5.43;;;5.03;;
19566;SDS011;9930;49.240;8.548;2022-07-25T13:35:20;5.05;;;4.75;;
19566;SDS011;9930;49.240;8.548;2022-07-25T13:37:48;5.05;;;4.72;;
19566;SDS011;9930;49.240;8.548;2022-07-25T13:40:16;5.10;;;4.80;;
19566;SDS011;9930;49.240;8.548;2022-07-25T13:42:44;5.60;;;5.20;;
19566;SDS011;9930;49.240;8.548;2022-07-25T13:45:10;5.70;;;5.20;;
19566;SDS011;9930;49.240;8.548;2022-07-25T13:47:38;5.50;;;5.10;;
19566;SDS011;9930;49.240;8.548;2022-07-25T13:50:04;5.03;;;4.72;;
19566;SDS011;9930;49.240;8.548;2022-07-25T13:52:32;5.57;;;5.05;;
19566;SDS011;9930;49.240;8.548;2022-07-25T13:54:59;5.38;;;4.90;;
19566;SDS011;9930;49.240;8.548;2022-07-25T13:57:25;5.45;;;5.05;;
19566;SDS011;9930;49.240;8.548;2022-07-25T13:59:51;6.20;;;5.38;;
19566;SDS011;9930;49.240;8.548;2022-07-25T14:02:17;5.35;;;5.05;;
19566;SDS011;9930;49.240;8.548;2022-07-25T14:04:42;5.50;;;5.10;;
19566;SDS011;9930;49.240;8.548;2022-07-25T14:07:08;5.60;;;5.20;;
19566;SDS011;9930;49.240;8.548;2022-07-25T14:09:36;5.40;;;5.00;;
19566;SDS011;9930;49.240;8.548;2022-07-25T14:12:02;5.15;;;4.78;;
19566;SDS011;9930;49.240;8.548;2022-07-25T14:14:29;5.40;;;5.10;;
19566;SDS011;9930;49.240;8.548;2022-07-25T14:16:54;5.63;;;5.15;;
19566;SDS011;9930;49.240;8.548;2022-07-25T14:19:27;5.38;;;5.07;;
19566;SDS011;9930;49.240;8.548;2022-07-25T14:21:54;5.38;;;4.97;;
19566;SDS011;9930;49.240;8.548;2022-07-25T14:24:21;5.40;;;5.00;;
19566;SDS011;9930;49.240;8.548;2022-07-25T14:26:46;5.03;;;4.70;;
19566;SDS011;9930;49.240;8.548;2022-07-25T14:29:13;5.50;;;5.10;;
19566;SDS011;9930;49.240;8.548;2022-07-25T14:31:39;5.50;;;5.20;;
19566;SDS011;9930;49.240;8.548;2022-07-25T14:34:05;5.18;;;4.88;;
19566;SDS011;9930;49.240;8.548;2022-07-25T14:36:33;5.22;;;4.80;;
19566;SDS011;9930;49.240;8.548;2022-07-25T14:39:03;5.53;;;5.13;;
19566;SDS011;9930;49.240;8.548;2022-07-25T14:41:29;5.78;;;4.78;;
19566;SDS011;9930;49.240;8.548;2022-07-25T14:43:58;5.22;;;4.85;;
19566;SDS011;9930;49.240;8.548;2022-07-25T14:46:25;5.50;;;5.00;;
19566;SDS011;9930;49.240;8.548;2022-07-25T14:48:53;4.80;;;4.50;;
19566;SDS011;9930;49.240;8.548;2022-07-25T14:51:23;5.38;;;4.88;;
19566;SDS011;9930;49.240;8.548;2022-07-25T14:53:51;5.05;;;4.70;;
19566;SDS011;9930;49.240;8.548;2022-07-25T14:56:17;4.88;;;4.57;;
19566;SDS011;9930;49.240;8.548;2022-07-25T14:58:45;5.38;;;5.03;;
19566;SDS011;9930;49.240;8.548;2022-07-25T15:01:10;5.32;;;4.93;;
19566;SDS011;9930;49.240;8.548;2022-07-25T15:03:36;5.65;;;5.25;;
19566;SDS011;9930;49.240;8.548;2022-07-25T15:06:02;5.38;;;4.97;;
19566;SDS011;9930;49.240;8.548;2022-07-25T15:08:31;5.05;;;4.70;;
19566;SDS011;9930;49.240;8.548;2022-07-25T15:10:59;7.25;;;6.65;;
19566;SDS011;9930;49.240;8.548;2022-07-25T15:13:29;5.65;;;5.25;;
19566;SDS011;9930;49.240;8.548;2022-07-25T15:16:00;4.90;;;4.60;;
19566;SDS011;9930;49.240;8.548;2022-07-25T15:18:29;10.40;;;4.80;;
19566;SDS011;9930;49.240;8.548;2022-07-25T15:20:58;5.55;;;5.15;;
19566;SDS011;9930;49.240;8.548;2022-07-25T15:23:28;5.20;;;4.80;;
19566;SDS011;9930;49.240;8.548;2022-07-25T15:25:55;5.20;;;4.80;;
19566;SDS011;9930;49.240;8.548;2022-07-25T15:28:24;5.10;;;4.80;;
19566;SDS011;9930;49.240;8.548;2022-07-25T15:30:52;5.20;;;4.80;;
19566;SDS011;9930;49.240;8.548;2022-07-25T15:33:17;4.97;;;4.57;;
19566;SDS011;9930;49.240;8.548;2022-07-25T15:35:44;5.07;;;4.68;;
19566;SDS011;9930;49.240;8.548;2022-07-25T15:38:11;4.70;;;4.40;;
19566;SDS011;9930;49.240;8.548;2022-07-25T15:40:38;5.13;;;4.72;;
19566;SDS011;9930;49.240;8.548;2022-07-25T15:43:04;5.03;;;4.63;;